• Join FlightAware (Why Join?)
  • Login
  • US Flag 
12:23AM EDT


 

Airport Tracker/Info


-or-


 

Live Flight TrackerFlight Track Log ✈ UAL5882 ✈ 01-Oct-2013 ✈ KALB - KCLE

Flight Track Log - Related Links

Times and Time Zones

All times are in EDT time to prevent confusion due to time zone crossing. See the UAL5882 flight status page for this flight to view local times or setup timezone preferences in your user account.

Time Position Orientation Groundspeed Altitude Reporting Facility
EDT Latitude Longitude Course Direction KTS MPH feet Rate Location/Type
02:50PM 42.7483 -73.8311 300° West 150 173 1,300  Level Boston Center
02:50PM 42.7472 -73.8600 267° West 161 185 2,200 1,560 Climbing Boston Center
02:51PM 42.7444 -73.9044 265° West 185 213 3,000 1,200 Climbing Boston Center
02:51PM 42.7483 -73.9361 280° West 225 259 3,400 1,620 Climbing Boston Center
02:52PM 42.7769 -73.9736 316° Northwest 231 266 4,700 2,280 Climbing Boston Center
02:53PM 42.6822 -74.3137 281° West  Level Estimated
02:53PM 42.8289 -74.0386 317° Northwest 250 288 7,000  Level Boston Center
02:54PM 42.7296 -74.4265 300° West  Level FlightAware Approximate
02:54PM 42.8819 -74.1078 316° Northwest 262 302 9,400  Level Boston Center
02:55PM 42.7769 -74.5394 300° West  Level FlightAware Approximate
02:55PM 42.9414 -74.1831 317° Northwest 273 314 11,000  Level Boston Center
02:56PM 43.0203 -74.2400 332° Northwest 324 373 11,900 1,140 Climbing Boston Center
02:57PM 43.1022 -74.3008 332° Northwest 335 386 13,400 1,440 Climbing Boston Center
02:58PM 43.1836 -74.3586 333° Northwest 331 381 14,900 1,260 Climbing Boston Center
02:59PM 43.2200 -74.4756 293° West 334 384 16,100 1,140 Climbing Boston Center
03:00PM 43.2153 -74.6075 267° West 345 397 17,200 960 Climbing Boston Center
03:01PM 43.2108 -74.7428 267° West 355 409 18,100 840 Climbing Boston Center
03:02PM 43.2067 -74.8811 268° West 362 417 19,000 900 Climbing Boston Center
03:03PM 43.2028 -75.0208 268° West 365 420 20,000 960 Climbing Boston Center
03:04PM 43.1986 -75.1639 268° West 372 428 21,000 1,020 Climbing Boston Center
03:05PM 43.1931 -75.3083 267° West 372 428 22,100 1,020 Climbing Boston Center
03:06PM 43.1875 -75.4533 267° West 378 435 23,200 1,020 Climbing Boston Center
03:07PM 43.1833 -75.5950 268° West 370 426 24,200 960 Climbing Boston Center
03:08PM 43.1789 -75.7344 268° West 368 423 25,200 960 Climbing Boston Center
03:09PM 43.1733 -75.8736 267° West 367 422 26,200 1,020 Climbing Boston Center
03:10PM 43.1672 -76.0367 267° West 361 415 27,400 1,080 Climbing Boston Center
03:11PM 43.1625 -76.1725 267° West 359 413 28,400 1,020 Climbing Boston Center
03:12PM 43.1286 -76.3031 250° West 365 420 29,500 960 Climbing Boston Center
03:13PM 43.0886 -76.4325 247° West 370 426 30,500 960 Climbing Boston Center
03:14PM 43.0478 -76.5608 247° West 371 427 31,500 720 Climbing Boston Center
03:15PM 43.0069 -76.6858 246° West 375 432 32,000 240 Climbing Boston Center
03:16PM 42.9633 -76.8239 247° West 396 456 32,000  Level Boston Center
03:17PM 42.9167 -76.9667 246° West 412 474 32,000  Level Boston Center
03:18PM 42.8525 -77.1375 243° Southwest 423 487 32,000  Level Boston Center
03:19PM 42.7931 -77.2761 240° Southwest 427 491 32,000  Level Boston Center
03:20PM 42.7342 -77.4161 240° Southwest 426 490 32,000  Level Boston Center
03:21PM 42.6594 -77.5867 239° Southwest 426 490 32,000  Level Cleveland Center
03:23PM 42.5997 -77.7236 239° Southwest 424 488 32,000  Level Cleveland Center
03:24PM 42.5372 -77.8706 240° Southwest 425 489 32,000  Level Cleveland Center
03:25PM 42.4778 -78.0064 239° Southwest 422 486 32,000  Level Cleveland Center
03:26PM 42.4186 -78.1433 240° Southwest 422 486 32,000  Level Cleveland Center
03:27PM 42.3569 -78.2817 239° Southwest 432 497 32,000  Level Cleveland Center
03:28PM 42.2833 -78.4472 239° Southwest 428 493 32,000  Level Cleveland Center
03:29PM 42.2217 -78.5856 239° Southwest 432 497 32,000  Level Cleveland Center
03:30PM 42.1600 -78.7258 239° Southwest 435 501 32,000 -300 Level Cleveland Center
03:31PM 42.1122 -78.8714 246° West 430 495 31,400 -1,020 Descending Cleveland Center
03:32PM 42.0781 -79.0164 252° West 413 475 29,900 -1,680 Descending Cleveland Center
03:33PM 42.0319 -79.1961 251° West 427 491 28,000 -1,800 Descending Cleveland Center
03:34PM 41.9936 -79.3483 251° West 433 498 26,200 -1,800 Descending Cleveland Center
03:35PM 41.9553 -79.4983 251° West 431 496 24,400 -1,800 Descending Cleveland Center
03:36PM 41.9125 -79.6622 251° West 433 498 22,600 -1,200 Descending Cleveland Center
03:37PM 41.8742 -79.8078 251° West 417 480 22,000 -300 Descending Cleveland Center
03:38PM 41.8381 -79.9508 251° West 405 466 22,000  Level Cleveland Center
03:39PM 41.8011 -80.0958 251° West 406 467 22,000  Level Cleveland Center
03:40PM 41.7622 -80.2417 250° West 411 473 22,000 -180 Level Cleveland Center
03:41PM 41.7233 -80.3872 250° West 413 475 21,700 -1,260 Descending Cleveland Center
03:42PM 41.6808 -80.5489 251° West 396 456 19,400 -2,100 Descending Cleveland Center
03:43PM 41.6461 -80.6772 250° West 371 427 17,400 -2,100 Descending Cleveland Center
03:44PM 41.6125 -80.8036 250° West 361 415 15,100 -2,100 Descending Cleveland Center
03:45PM 41.5769 -80.9319 250° West 364 419 13,100 -1,920 Descending Cleveland Center
03:46PM 41.5369 -81.0833 251° West 359 413 11,100 -1,680 Descending Cleveland Center
03:47PM 41.5158 -81.1836 254° West 346 398 10,000 -1,140 Descending Cleveland Center
03:47PM 41.5114 -81.1853 196° South 356 410 10,000 -120 Level Cleveland Center
03:48PM 41.5136 -81.3061 271° West 286 329 9,900 -300 Descending Cleveland Center
03:48PM 41.5117 -81.3164 256° West 304 350 9,700 -1,680 Descending Cleveland Center
03:49PM 41.5136 -81.4008 272° West 257 296 8,200 -1,800 Descending Cleveland Center
03:49PM 41.5128 -81.4131 265° West 270 311 7,900 -1,920 Descending Cleveland Center
03:50PM 41.5167 -81.5103 273° West 255 293 6,100 -1,800 Descending Cleveland Center
03:50PM 41.5153 -81.5067 117° Southeast 257 296 6,100 -1,800 Level Cleveland Center
03:51PM 41.5236 -81.5953 277° West 247 284 4,500 -1,680 Descending Cleveland Center
03:51PM 41.5219 -81.5975 225° Southwest 250 288 4,400 -600 Descending Cleveland Center
03:53PM 41.5200 -81.6797 268° West 233 268 3,800 -840 Descending Cleveland Center
03:53PM 41.4853 -81.7400 232° Southwest 206 237 2,900 -1,020 Descending Cleveland Center
03:54PM 41.4811 -81.7406 186° South 221 254 2,800 -720 Descending Cleveland Center
03:54PM 41.4608 -81.7778 234° Southwest 116 133 2,200 -780 Descending Cleveland Center
03:55PM 41.4539 -81.7847 217° Southwest 150 173 2,000 -720 Descending Cleveland Center
03:55PM 41.4364 -81.8158 233° Southwest 136 157 1,500 -600 Descending Cleveland Center
03:56PM 41.4306 -81.8214 216° Southwest 133 153 1,400 -600 Descending Cleveland Center
03:57PM 41.4111 -81.8522 230° Southwest 131 151 800 -600 Descending Cleveland Center